Terminal Aerodrome Forecast
Issued by NWS

Home | Current Version | Previous Version | Graphics & Text | Print | Product List | Glossary On
Versions: 1 2 3 4 5 6 7 8 9 10 11 12 13 14 15 16 17 18 19 20 21 22 23 24 25 26 27 28 29 30 31
799
FTUS43 KLSX 011418 AAB
TAFSUS
TAF AMD
KSUS 011418Z 0114/0212 00000KT P6SM SCT006 BKN250
      TEMPO 0114/0115 BKN007
     FM011500 27007KT P6SM SCT015 BKN250
     FM011800 25012KT P6SM VCSH BKN040
     FM020100 32008KT P6SM SCT050 BKN120
     FM020800 32007KT P6SM BKN015=

USA.gov is the U.S. government's official web portal to all federal, state and local government web resources and services.